Time;durP1;ratioP1;P1;durP2;ratioP2;P2;SDS_P1;SDS_P2;PMS_P1;PMS_P2;Temp;Humidity;BMP_temperature;BMP_pressure;BME280_temperature;BME280_humidity;BME280_pressure;Samples;Min_cycle;Max_cycle;Signal;HPM_P1;HPM_P2
2023/01/11 00:02:19;;;;;;;13.32;11.35;;;;;;;;;;4978548;28;99383;-74
2023/01/11 00:04:46;;;;;;;12.48;10.70;;;;;;;;;;4985307;28;98967;-73
2023/01/11 00:07:12;;;;;;;14.95;10.45;;;;;;;;;;4984121;28;100090;-72
2023/01/11 00:09:39;;;;;;;13.02;9.73;;;;;;;;;;4973193;28;101225;-73
2023/01/11 00:12:07;;;;;;;10.98;8.35;;;;;;;;;;4983952;28;100602;-73
2023/01/11 00:14:33;;;;;;;13.05;10.98;;;;;;;;;;4982475;28;100468;-74
2023/01/11 00:16:59;;;;;;;11.70;8.48;;;;;;;;;;4978135;28;99960;-73
2023/01/11 00:19:26;;;;;;;11.23;10.15;;;;;;;;;;4981304;28;99929;-73
2023/01/11 00:21:52;;;;;;;15.70;9.73;;;;;;;;;;4985443;28;100222;-73
2023/01/11 00:24:18;;;;;;;17.10;9.55;;;;;;;;;;4982729;28;99960;-73
2023/01/11 00:26:45;;;;;;;15.15;8.70;;;;;;;;;;4984601;28;99141;-73
2023/01/11 00:29:11;;;;;;;11.80;10.52;;;;;;;;;;4985835;28;99888;-73
2023/01/11 00:31:37;;;;;;;12.85;10.55;;;;;;;;;;4985456;28;98863;-73
2023/01/11 00:34:04;;;;;;;11.35;8.82;;;;;;;;;;4982729;28;99696;-74
2023/01/11 00:36:30;;;;;;;15.45;10.35;;;;;;;;;;4989476;28;99902;-73
2023/01/11 00:38:57;;;;;;;16.30;10.68;;;;;;;;;;4984973;28;99982;-74
2023/01/11 00:49:39;;;;;;;16.83;11.35;;;;;;;;;;4975156;28;98559;-74
2023/01/11 00:52:07;;;;;;;9.95;8.15;;;;;;;;;;4985901;28;99969;-74
2023/01/11 00:54:35;;;;;;;12.30;10.07;;;;;;;;;;4982352;28;100193;-74
2023/01/11 00:57:01;;;;;;;16.85;11.18;;;;;;;;;;4984787;28;99589;-73
2023/01/11 00:59:28;;;;;;;15.50;9.68;;;;;;;;;;4979837;28;100093;-73
2023/01/11 01:01:54;;;;;;;14.50;11.05;;;;;;;;;;4972104;28;99363;-72
2023/01/11 01:04:20;;;;;;;14.43;10.40;;;;;;;;;;4984999;28;99970;-73
2023/01/11 01:06:47;;;;;;;10.88;9.80;;;;;;;;;;4983238;28;99004;-72
2023/01/11 01:09:13;;;;;;;10.13;9.13;;;;;;;;;;4984806;28;100399;-72
2023/01/11 01:11:39;;;;;;;14.93;8.80;;;;;;;;;;4977478;28;99996;-72
2023/01/11 01:14:27;;;;;;;13.00;8.07;;;;;;;;;;4980022;28;99266;-72
2023/01/11 01:16:55;;;;;;;14.82;6.70;;;;;;;;;;4984678;28;99712;-73
2023/01/11 01:19:21;;;;;;;9.75;7.38;;;;;;;;;;4973854;28;99503;-73
2023/01/11 01:21:48;;;;;;;11.10;7.72;;;;;;;;;;4987497;28;99145;-72
2023/01/11 01:24:15;;;;;;;7.65;6.90;;;;;;;;;;4984364;28;100178;-72
2023/01/11 01:26:41;;;;;;;7.80;7.00;;;;;;;;;;4983312;28;100702;-72
2023/01/11 01:29:08;;;;;;;8.18;6.68;;;;;;;;;;4984278;28;100163;-73
2023/01/11 01:31:34;;;;;;;9.50;6.97;;;;;;;;;;4983335;28;100013;-72
2023/01/11 01:34:00;;;;;;;11.18;5.88;;;;;;;;;;4979267;28;100186;-72
2023/01/11 01:36:27;;;;;;;7.07;6.40;;;;;;;;;;4983695;28;100215;-73
2023/01/11 01:38:53;;;;;;;8.27;6.18;;;;;;;;;;4977307;28;99029;-73
2023/01/11 01:41:19;;;;;;;7.85;4.88;;;;;;;;;;4974700;28;99122;-73
2023/01/11 01:43:48;;;;;;;6.68;6.03;;;;;;;;;;4988118;28;100103;-73
2023/01/11 01:46:15;;;;;;;6.00;5.43;;;;;;;;;;4982567;28;100425;-73
2023/01/11 01:48:42;;;;;;;6.00;5.35;;;;;;;;;;4984274;28;100512;-73
2023/01/11 01:51:12;;;;;;;5.85;5.35;;;;;;;;;;4982118;28;100249;-73
2023/01/11 01:53:40;;;;;;;6.85;5.75;;;;;;;;;;4981749;28;99217;-73
2023/01/11 01:56:14;;;;;;;7.13;5.47;;;;;;;;;;4984121;28;100440;-73
2023/01/11 01:58:45;;;;;;;5.00;4.40;;;;;;;;;;4982443;28;100047;-72
2023/01/11 02:03:58;;;;;;;5.22;4.03;;;;;;;;;;4973028;28;99267;-73
2023/01/11 02:06:24;;;;;;;6.13;4.80;;;;;;;;;;4975820;28;98348;-73
2023/01/11 02:08:55;;;;;;;4.43;4.10;;;;;;;;;;4984137;28;99729;-73
2023/01/11 02:11:30;;;;;;;5.32;4.30;;;;;;;;;;4982631;28;99115;-73
2023/01/11 02:13:58;;;;;;;4.50;4.10;;;;;;;;;;4982899;28;100067;-73
2023/01/11 02:16:24;;;;;;;5.70;4.43;;;;;;;;;;4984698;28;100187;-73
2023/01/11 02:18:51;;;;;;;6.43;4.25;;;;;;;;;;4978541;28;100191;-73
2023/01/11 02:21:39;;;;;;;4.43;4.13;;;;;;;;;;4971327;28;99087;-72
2023/01/11 02:24:24;;;;;;;4.47;4.18;;;;;;;;;;4985123;28;100531;-73
2023/01/11 02:27:00;;;;;;;3.97;3.65;;;;;;;;;;4988978;28;100149;-72
2023/01/11 02:29:26;;;;;;;4.82;4.38;;;;;;;;;;4983850;28;99339;-72
2023/01/11 02:31:55;;;;;;;6.28;3.47;;;;;;;;;;4977215;28;99151;-73
2023/01/11 02:34:51;;;;;;;4.10;3.80;;;;;;;;;;4981508;28;99496;-72
2023/01/11 02:37:32;;;;;;;3.63;3.42;;;;;;;;;;4953298;28;100308;-73
2023/01/11 02:40:17;;;;;;;4.00;3.70;;;;;;;;;;4982669;28;100314;-72
2023/01/11 02:45:54;;;;;;;3.80;3.60;;;;;;;;;;4976549;28;100165;-72
2023/01/11 02:48:21;;;;;;;3.83;3.63;;;;;;;;;;4987410;28;99953;-72
2023/01/11 02:51:07;;;;;;;5.28;4.88;;;;;;;;;;4989456;28;100515;-72
2023/01/11 02:53:53;;;;;;;5.40;4.90;;;;;;;;;;4980502;28;100520;-72
2023/01/11 02:56:22;;;;;;;5.88;5.47;;;;;;;;;;4983688;28;99872;-72
2023/01/11 02:58:49;;;;;;;5.82;5.32;;;;;;;;;;4987780;28;98621;-73
2023/01/11 03:01:17;;;;;;;5.90;5.40;;;;;;;;;;4986327;28;99982;-73
2023/01/11 03:03:44;;;;;;;5.53;5.13;;;;;;;;;;4982878;28;99873;-73
2023/01/11 03:06:10;;;;;;;9.77;5.63;;;;;;;;;;4985168;28;100880;-73
2023/01/11 03:08:52;;;;;;;5.22;4.72;;;;;;;;;;4987033;28;99932;-73
2023/01/11 03:14:10;;;;;;;5.40;4.50;;;;;;;;;;4982923;28;99306;-72
2023/01/11 03:16:40;;;;;;;5.35;4.80;;;;;;;;;;4979529;28;99977;-72
2023/01/11 03:19:10;;;;;;;11.07;5.60;;;;;;;;;;4983643;28;100617;-72
2023/01/11 03:21:39;;;;;;;5.88;5.38;;;;;;;;;;4980149;28;100032;-72
2023/01/11 03:24:14;;;;;;;5.55;5.05;;;;;;;;;;4984992;28;99470;-72
2023/01/11 03:26:43;;;;;;;7.50;4.88;;;;;;;;;;4989662;28;99484;-73
2023/01/11 03:29:13;;;;;;;5.18;4.65;;;;;;;;;;4985732;28;100099;-73
2023/01/11 03:31:45;;;;;;;6.13;5.13;;;;;;;;;;4985843;28;100085;-73
2023/01/11 03:34:14;;;;;;;9.33;5.30;;;;;;;;;;4968138;28;100176;-72
2023/01/11 03:36:44;;;;;;;8.23;5.35;;;;;;;;;;4987571;28;100646;-73
2023/01/11 03:39:10;;;;;;;5.55;5.05;;;;;;;;;;4976599;28;99600;-72
2023/01/11 03:41:38;;;;;;;6.38;5.78;;;;;;;;;;4986906;28;98967;-73
2023/01/11 03:44:06;;;;;;;5.70;5.10;;;;;;;;;;4977120;28;100024;-73
2023/01/11 03:46:35;;;;;;;8.00;4.88;;;;;;;;;;4987135;28;99441;-73
2023/01/11 03:49:07;;;;;;;4.40;4.00;;;;;;;;;;4985581;28;99937;-73
2023/01/11 03:51:37;;;;;;;3.85;3.38;;;;;;;;;;4984818;28;100075;-73
2023/01/11 03:54:05;;;;;;;3.25;2.63;;;;;;;;;;4981574;28;99341;-72
2023/01/11 03:56:35;;;;;;;2.83;2.60;;;;;;;;;;4967712;28;99724;-73
2023/01/11 03:59:02;;;;;;;4.50;3.05;;;;;;;;;;4989756;28;99984;-73
2023/01/11 04:01:28;;;;;;;2.28;1.67;;;;;;;;;;4968582;28;99418;-72
2023/01/11 04:03:55;;;;;;;1.80;1.70;;;;;;;;;;4977403;28;99833;-72
2023/01/11 04:06:22;;;;;;;1.88;1.60;;;;;;;;;;4984611;28;100185;-72
2023/01/11 04:08:48;;;;;;;2.08;1.70;;;;;;;;;;4975507;28;99061;-72
2023/01/11 04:11:15;;;;;;;1.52;1.42;;;;;;;;;;4983332;28;100038;-72
2023/01/11 04:13:41;;;;;;;2.20;2.10;;;;;;;;;;4972557;28;99416;-72
2023/01/11 04:16:07;;;;;;;3.10;2.60;;;;;;;;;;4983406;28;98948;-72
2023/01/11 04:18:34;;;;;;;4.25;3.10;;;;;;;;;;4988934;28;99581;-72
2023/01/11 04:21:00;;;;;;;3.80;2.72;;;;;;;;;;4978915;28;100148;-72
2023/01/11 04:23:26;;;;;;;3.75;2.75;;;;;;;;;;4984412;28;100727;-72
2023/01/11 04:25:53;;;;;;;4.50;3.22;;;;;;;;;;4985082;28;99464;-72
2023/01/11 04:28:19;;;;;;;4.32;3.45;;;;;;;;;;4985403;28;98955;-72
2023/01/11 04:30:45;;;;;;;5.82;4.07;;;;;;;;;;4983353;28;99119;-71
2023/01/11 04:33:13;;;;;;;6.25;5.05;;;;;;;;;;4985106;28;99613;-72
2023/01/11 04:35:39;;;;;;;7.55;4.47;;;;;;;;;;4982868;28;99045;-72
2023/01/11 04:38:06;;;;;;;6.53;4.93;;;;;;;;;;4985636;28;99424;-72
2023/01/11 04:40:32;;;;;;;13.25;5.82;;;;;;;;;;4988273;28;100348;-73
2023/01/11 04:43:01;;;;;;;7.47;5.55;;;;;;;;;;4983447;28;100160;-73
2023/01/11 04:45:28;;;;;;;11.55;6.20;;;;;;;;;;4983404;28;100626;-72
2023/01/11 04:47:55;;;;;;;8.27;6.57;;;;;;;;;;4984004;28;100060;-72
2023/01/11 04:50:22;;;;;;;15.52;6.72;;;;;;;;;;4979935;28;100519;-72
2023/01/11 04:52:48;;;;;;;13.32;7.40;;;;;;;;;;4984646;28;100153;-72
2023/01/11 04:55:15;;;;;;;9.77;5.68;;;;;;;;;;4983804;28;100737;-73
2023/01/11 04:57:44;;;;;;;13.77;5.28;;;;;;;;;;4985198;28;99933;-72
2023/01/11 05:00:11;;;;;;;12.07;6.00;;;;;;;;;;4975388;28;99340;-73
2023/01/11 05:02:37;;;;;;;17.00;6.43;;;;;;;;;;4981298;28;99229;-72
2023/01/11 05:05:05;;;;;;;13.88;5.57;;;;;;;;;;4984466;28;100348;-73
2023/01/11 05:07:31;;;;;;;19.95;6.30;;;;;;;;;;4981842;28;100257;-73
2023/01/11 05:09:58;;;;;;;15.40;5.53;;;;;;;;;;4979807;28;99309;-72
2023/01/11 05:12:24;;;;;;;19.98;6.93;;;;;;;;;;4973175;28;99898;-72
2023/01/11 05:14:51;;;;;;;21.05;5.55;;;;;;;;;;4972378;28;99299;-73
2023/01/11 05:17:17;;;;;;;26.15;6.22;;;;;;;;;;4984601;28;100220;-73
2023/01/11 05:19:43;;;;;;;18.17;4.82;;;;;;;;;;4974130;28;100233;-73
2023/01/11 05:22:10;;;;;;;18.23;5.20;;;;;;;;;;4968065;28;99899;-73
2023/01/11 05:24:36;;;;;;;15.40;3.47;;;;;;;;;;4988484;28;99081;-73
2023/01/11 05:27:03;;;;;;;30.13;4.47;;;;;;;;;;4979235;28;99279;-73
2023/01/11 05:29:29;;;;;;;23.83;4.75;;;;;;;;;;4982602;28;98589;-73
2023/01/11 05:31:56;;;;;;;23.23;4.03;;;;;;;;;;4984732;28;100176;-73
2023/01/11 05:34:22;;;;;;;23.85;5.13;;;;;;;;;;4982127;28;101874;-73
2023/01/11 05:36:48;;;;;;;16.08;3.60;;;;;;;;;;4973635;28;100077;-72
2023/01/11 05:39:15;;;;;;;27.55;5.07;;;;;;;;;;4978001;28;100334;-72
2023/01/11 05:41:42;;;;;;;21.35;4.15;;;;;;;;;;4978939;28;99524;-72
2023/01/11 05:46:55;;;;;;;27.10;4.85;;;;;;;;;;4969984;28;100169;-72
2023/01/11 05:49:21;;;;;;;36.97;5.57;;;;;;;;;;4978373;28;100438;-73
2023/01/11 05:51:48;;;;;;;29.00;4.13;;;;;;;;;;4988683;28;98767;-72
2023/01/11 05:54:14;;;;;;;30.70;4.18;;;;;;;;;;4976927;28;100059;-73
2023/01/11 05:56:44;;;;;;;25.67;5.13;;;;;;;;;;4975719;28;100211;-72
2023/01/11 05:59:10;;;;;;;35.90;5.68;;;;;;;;;;4985492;28;101049;-72
2023/01/11 06:01:37;;;;;;;33.08;5.07;;;;;;;;;;4986659;28;99182;-73
2023/01/11 06:04:03;;;;;;;32.13;5.97;;;;;;;;;;4983419;28;99311;-73
2023/01/11 06:06:30;;;;;;;24.15;4.97;;;;;;;;;;4979412;28;99535;-73
2023/01/11 06:08:57;;;;;;;33.95;5.07;;;;;;;;;;4986231;28;100326;-74
2023/01/11 06:11:23;;;;;;;28.55;5.45;;;;;;;;;;4978862;28;100504;-73
2023/01/11 06:13:49;;;;;;;35.78;4.90;;;;;;;;;;4981486;28;99067;-72
2023/01/11 06:16:16;;;;;;;25.38;4.13;;;;;;;;;;4981978;28;101747;-73
2023/01/11 06:18:45;;;;;;;27.17;4.38;;;;;;;;;;4987353;28;99322;-73
2023/01/11 06:21:12;;;;;;;29.05;5.00;;;;;;;;;;4980717;28;99701;-72
2023/01/11 06:23:39;;;;;;;36.15;5.60;;;;;;;;;;4980609;28;100526;-72
2023/01/11 06:26:07;;;;;;;33.85;4.93;;;;;;;;;;4985092;28;100229;-72
2023/01/11 06:28:34;;;;;;;25.52;4.25;;;;;;;;;;4988768;28;99959;-72
2023/01/11 06:31:01;;;;;;;32.03;5.53;;;;;;;;;;4980327;28;100181;-72
2023/01/11 06:33:28;;;;;;;35.08;5.30;;;;;;;;;;4982759;28;99059;-72
2023/01/11 06:35:55;;;;;;;22.83;4.63;;;;;;;;;;4985495;28;99928;-72
2023/01/11 06:38:22;;;;;;;33.70;5.03;;;;;;;;;;4986930;28;99429;-72
2023/01/11 06:40:53;;;;;;;36.67;5.22;;;;;;;;;;4987665;28;100177;-72
2023/01/11 06:43:19;;;;;;;27.00;4.15;;;;;;;;;;4985885;28;98569;-72
2023/01/11 06:45:46;;;;;;;31.33;5.55;;;;;;;;;;4986409;28;99445;-72
2023/01/11 06:48:12;;;;;;;19.73;4.18;;;;;;;;;;4975646;28;99847;-72
2023/01/11 06:50:39;;;;;;;21.63;4.03;;;;;;;;;;4988710;28;99727;-72
2023/01/11 06:53:05;;;;;;;31.45;5.18;;;;;;;;;;4978515;28;100502;-71
2023/01/11 06:55:31;;;;;;;24.35;3.63;;;;;;;;;;4984268;28;99613;-72
2023/01/11 06:57:58;;;;;;;28.63;4.53;;;;;;;;;;4984852;28;99368;-71
2023/01/11 07:00:24;;;;;;;20.20;4.10;;;;;;;;;;4983867;28;99036;-72
2023/01/11 07:02:51;;;;;;;28.55;3.70;;;;;;;;;;4979393;28;99960;-72
2023/01/11 07:05:17;;;;;;;26.92;4.40;;;;;;;;;;4986802;28;99652;-72
2023/01/11 07:07:44;;;;;;;25.02;4.60;;;;;;;;;;4980163;28;100254;-74
2023/01/11 07:10:13;;;;;;;26.15;3.67;;;;;;;;;;4980586;28;99893;-74
2023/01/11 07:12:39;;;;;;;23.45;3.45;;;;;;;;;;4977116;28;99937;-73
2023/01/11 07:15:07;;;;;;;17.80;2.80;;;;;;;;;;4972915;28;100906;-72
2023/01/11 07:17:33;;;;;;;18.80;3.33;;;;;;;;;;4975185;28;100225;-73
2023/01/11 07:20:00;;;;;;;15.15;2.83;;;;;;;;;;4977543;28;100339;-73
2023/01/11 07:22:26;;;;;;;22.98;4.10;;;;;;;;;;4973792;28;100657;-73
2023/01/11 07:24:53;;;;;;;25.35;3.65;;;;;;;;;;4977972;28;100198;-75
2023/01/11 07:27:19;;;;;;;18.30;3.33;;;;;;;;;;4975770;28;99067;-73
2023/01/11 07:29:46;;;;;;;21.65;3.67;;;;;;;;;;4978109;28;100309;-73
2023/01/11 07:32:12;;;;;;;19.40;3.15;;;;;;;;;;4979814;28;99735;-72
2023/01/11 07:34:39;;;;;;;18.80;3.25;;;;;;;;;;4983277;28;100093;-73
2023/01/11 07:37:07;;;;;;;11.35;3.55;;;;;;;;;;4978783;28;100312;-73
2023/01/11 07:39:53;;;;;;;20.95;3.35;;;;;;;;;;4978438;28;99007;-74
2023/01/11 07:45:05;;;;;;;21.73;3.35;;;;;;;;;;4975445;28;100228;-74
2023/01/11 07:47:31;;;;;;;30.73;4.05;;;;;;;;;;4979564;28;100546;-74
2023/01/11 07:49:58;;;;;;;20.35;3.40;;;;;;;;;;4978577;28;99307;-74
2023/01/11 07:52:24;;;;;;;18.73;3.78;;;;;;;;;;4975703;28;100187;-74
2023/01/11 07:54:50;;;;;;;23.85;3.95;;;;;;;;;;4984641;28;99419;-74
2023/01/11 07:57:17;;;;;;;17.33;3.72;;;;;;;;;;4978506;28;98593;-74
2023/01/11 07:59:43;;;;;;;18.80;4.07;;;;;;;;;;4978258;28;100268;-74
2023/01/11 08:02:10;;;;;;;21.05;3.80;;;;;;;;;;4979985;27;99945;-73
2023/01/11 08:04:36;;;;;;;14.80;3.50;;;;;;;;;;4980561;28;100190;-72
2023/01/11 08:07:03;;;;;;;21.50;3.80;;;;;;;;;;4978850;28;99936;-73
2023/01/11 08:09:29;;;;;;;21.70;4.15;;;;;;;;;;4973244;28;100107;-74
2023/01/11 08:14:40;;;;;;;20.27;3.45;;;;;;;;;;4973498;28;100523;-73
2023/01/11 08:17:11;;;;;;;18.85;3.60;;;;;;;;;;4974249;28;100047;-74
2023/01/11 08:19:38;;;;;;;26.85;4.00;;;;;;;;;;4982571;28;99548;-74
2023/01/11 08:22:04;;;;;;;31.73;4.32;;;;;;;;;;4982668;28;98506;-74
2023/01/11 08:24:31;;;;;;;23.35;3.97;;;;;;;;;;4984495;28;100214;-74
2023/01/11 08:26:57;;;;;;;26.17;3.60;;;;;;;;;;4983789;28;99314;-74
2023/01/11 08:29:24;;;;;;;27.00;4.53;;;;;;;;;;4998666;28;102846;-73
2023/01/11 08:31:50;;;;;;;31.00;4.43;;;;;;;;;;4982972;28;100284;-73
2023/01/11 08:34:16;;;;;;;21.90;3.67;;;;;;;;;;4976309;28;100523;-73
2023/01/11 08:36:43;;;;;;;28.00;3.90;;;;;;;;;;4968099;28;99381;-73
2023/01/11 08:39:10;;;;;;;29.02;5.60;;;;;;;;;;4976956;28;100333;-74
2023/01/11 08:41:37;;;;;;;24.67;4.18;;;;;;;;;;4978228;28;100245;-74
2023/01/11 08:44:04;;;;;;;28.33;3.97;;;;;;;;;;4977337;28;99644;-74
2023/01/11 08:46:32;;;;;;;22.23;4.40;;;;;;;;;;4978930;28;98966;-74
2023/01/11 08:49:00;;;;;;;25.20;4.03;;;;;;;;;;4973604;28;99013;-74
2023/01/11 08:51:26;;;;;;;20.95;4.47;;;;;;;;;;4974977;28;101065;-74
2023/01/11 08:53:52;;;;;;;24.30;3.83;;;;;;;;;;4982331;28;98978;-75
2023/01/11 08:56:19;;;;;;;24.95;3.97;;;;;;;;;;4975490;28;100059;-74
2023/01/11 08:58:45;;;;;;;23.33;4.32;;;;;;;;;;4977805;28;100119;-73
2023/01/11 09:01:12;;;;;;;23.58;4.22;;;;;;;;;;4972036;28;100137;-73
2023/01/11 09:03:38;;;;;;;25.83;3.70;;;;;;;;;;4974711;28;100151;-74
2023/01/11 09:06:05;;;;;;;22.48;3.80;;;;;;;;;;4976442;28;100241;-74
2023/01/11 09:08:31;;;;;;;20.23;3.83;;;;;;;;;;4975146;28;100329;-74
2023/01/11 09:10:58;;;;;;;26.50;3.80;;;;;;;;;;4976438;28;102494;-73
2023/01/11 09:13:25;;;;;;;26.27;5.00;;;;;;;;;;4970368;28;101612;-73
2023/01/11 09:15:58;;;;;;;26.88;4.03;;;;;;;;;;4972359;28;100397;-74
2023/01/11 09:18:25;;;;;;;19.98;4.75;;;;;;;;;;4973535;28;100054;-74
2023/01/11 09:20:52;;;;;;;38.63;4.53;;;;;;;;;;4977614;28;98917;-74
2023/01/11 09:23:19;;;;;;;24.73;4.22;;;;;;;;;;4978206;28;99897;-74
2023/01/11 09:25:45;;;;;;;24.42;5.00;;;;;;;;;;4979949;28;99872;-75
2023/01/11 09:28:11;;;;;;;28.02;4.15;;;;;;;;;;4977436;28;100224;-75
2023/01/11 09:30:38;;;;;;;29.92;4.15;;;;;;;;;;4978004;28;100493;-74
2023/01/11 09:33:05;;;;;;;30.40;4.78;;;;;;;;;;4980242;28;99059;-74
2023/01/11 09:35:32;;;;;;;28.63;4.85;;;;;;;;;;4978294;28;100484;-74
2023/01/11 09:38:00;;;;;;;33.47;6.15;;;;;;;;;;4979239;28;100267;-74
2023/01/11 09:40:32;;;;;;;38.20;5.35;;;;;;;;;;4976714;28;101039;-74
2023/01/11 09:43:02;;;;;;;17.47;3.30;;;;;;;;;;4981803;28;101014;-75
2023/01/11 09:45:30;;;;;;;30.48;4.53;;;;;;;;;;4985859;28;100055;-75
2023/01/11 09:48:03;;;;;;;23.83;4.13;;;;;;;;;;4986248;28;99216;-74
2023/01/11 09:50:40;;;;;;;32.67;4.93;;;;;;;;;;4979875;28;99776;-74
2023/01/11 09:53:08;;;;;;;29.38;4.28;;;;;;;;;;4986565;28;100105;-75
2023/01/11 09:55:36;;;;;;;33.22;6.70;;;;;;;;;;4984264;28;99976;-74
2023/01/11 09:58:13;;;;;;;30.20;4.57;;;;;;;;;;4982091;28;98464;-74
2023/01/11 10:01:12;;;;;;;24.92;3.85;;;;;;;;;;4980215;28;100014;-74
2023/01/11 10:03:38;;;;;;;22.25;4.07;;;;;;;;;;4951260;28;100350;-74
2023/01/11 10:06:05;;;;;;;31.38;3.97;;;;;;;;;;4984596;28;100223;-74
2023/01/11 10:08:42;;;;;;;28.95;4.68;;;;;;;;;;4986481;28;99499;-74
2023/01/11 10:11:41;;;;;;;33.53;5.28;;;;;;;;;;4983207;28;100101;-75
2023/01/11 10:14:39;;;;;;;33.13;4.35;;;;;;;;;;4982626;28;99136;-74
2023/01/11 10:17:29;;;;;;;20.30;3.47;;;;;;;;;;4978848;28;99020;-76
2023/01/11 10:20:22;;;;;;;27.30;4.55;;;;;;;;;;4981301;28;99937;-74
2023/01/11 10:22:54;;;;;;;28.67;4.57;;;;;;;;;;4981554;28;98973;-74
2023/01/11 10:25:25;;;;;;;24.58;3.83;;;;;;;;;;4976244;28;100539;-74
2023/01/11 10:27:57;;;;;;;27.80;5.05;;;;;;;;;;4980053;28;99147;-74
2023/01/11 10:33:09;;;;;;;;;;;;;;;;;;4982117;28;100196;-73
2023/01/11 10:41:18;;;;;;;28.15;4.40;;;;;;;;;;4982934;28;100512;-74
2023/01/11 10:43:46;;;;;;;31.48;4.35;;;;;;;;;;4976880;28;100239;-73
2023/01/11 10:46:17;;;;;;;27.83;4.68;;;;;;;;;;4982916;28;100198;-73
2023/01/11 10:48:44;;;;;;;29.90;5.15;;;;;;;;;;4978175;28;101732;-74
2023/01/11 10:51:28;;;;;;;25.77;5.07;;;;;;;;;;4975495;28;99686;-74
2023/01/11 10:53:59;;;;;;;30.30;5.15;;;;;;;;;;4978157;28;99323;-74
2023/01/11 10:56:26;;;;;;;19.55;3.80;;;;;;;;;;4981563;28;99308;-74
2023/01/11 10:59:12;;;;;;;22.85;4.38;;;;;;;;;;4985502;28;100567;-74
2023/01/11 11:01:49;;;;;;;28.13;5.22;;;;;;;;;;4973257;28;100262;-74
2023/01/11 11:04:27;;;;;;;27.38;5.45;;;;;;;;;;4974493;28;99938;-75
2023/01/11 11:07:15;;;;;;;19.88;3.70;;;;;;;;;;4973089;28;100087;-74
2023/01/11 11:09:46;;;;;;;23.98;4.53;;;;;;;;;;4981403;28;100517;-74
2023/01/11 11:12:18;;;;;;;21.25;4.22;;;;;;;;;;4974468;28;99121;-75
2023/01/11 11:14:56;;;;;;;18.65;4.57;;;;;;;;;;4981200;28;99934;-76
2023/01/11 11:17:33;;;;;;;28.35;5.85;;;;;;;;;;4980789;28;100936;-73
2023/01/11 11:20:03;;;;;;;28.50;3.30;;;;;;;;;;4981473;28;98587;-74
2023/01/11 11:22:30;;;;;;;18.73;3.08;;;;;;;;;;4973308;28;99477;-76
2023/01/11 11:25:03;;;;;;;21.45;4.13;;;;;;;;;;4973471;28;99662;-75
2023/01/11 11:27:30;;;;;;;23.48;4.78;;;;;;;;;;4975048;28;100679;-74
2023/01/11 11:29:56;;;;;;;27.98;4.63;;;;;;;;;;4977331;28;100882;-77
2023/01/11 11:32:25;;;;;;;22.63;4.78;;;;;;;;;;4977996;28;99949;-76
2023/01/11 11:34:52;;;;;;;25.42;4.22;;;;;;;;;;4980635;28;100127;-77
2023/01/11 11:37:20;;;;;;;25.60;3.88;;;;;;;;;;4977883;28;100160;-76
2023/01/11 11:39:50;;;;;;;29.58;4.50;;;;;;;;;;4985014;28;100096;-77
2023/01/11 11:42:19;;;;;;;16.10;3.75;;;;;;;;;;4972830;28;99764;-75
2023/01/11 11:45:04;;;;;;;22.63;3.78;;;;;;;;;;4979610;28;99431;-80
2023/01/11 11:47:30;;;;;;;27.25;4.00;;;;;;;;;;4968312;28;100079;-75
2023/01/11 11:50:15;;;;;;;20.42;3.67;;;;;;;;;;4972999;28;101022;-76
2023/01/11 11:52:53;;;;;;;19.42;3.85;;;;;;;;;;4982136;28;99185;-77
2023/01/11 11:55:25;;;;;;;16.60;3.45;;;;;;;;;;4967587;28;100604;-76
2023/01/11 11:57:52;;;;;;;20.52;3.58;;;;;;;;;;4974339;28;100042;-79
2023/01/11 12:00:18;;;;;;;26.70;4.38;;;;;;;;;;4977323;28;100371;-79
2023/01/11 12:02:48;;;;;;;25.58;4.05;;;;;;;;;;4980652;28;100373;-79
2023/01/11 12:05:14;;;;;;;15.15;3.20;;;;;;;;;;4976700;28;99650;-79
2023/01/11 12:07:45;;;;;;;28.45;3.95;;;;;;;;;;4980175;28;98985;-81
2023/01/11 12:10:25;;;;;;;17.98;3.67;;;;;;;;;;4976514;28;100433;-80
2023/01/11 12:12:55;;;;;;;16.08;3.47;;;;;;;;;;4973531;28;99525;-80
2023/01/11 12:15:27;;;;;;;22.60;3.60;;;;;;;;;;4977963;28;99673;-81
2023/01/11 12:17:54;;;;;;;22.20;4.77;;;;;;;;;;4974339;28;100325;-81
2023/01/11 12:20:20;;;;;;;20.90;4.22;;;;;;;;;;4981000;28;100973;-79
2023/01/11 12:23:06;;;;;;;32.08;5.05;;;;;;;;;;4971446;27;101119;-80
2023/01/11 12:25:37;;;;;;;21.58;3.70;;;;;;;;;;4974390;28;100211;-78
2023/01/11 12:28:06;;;;;;;20.70;4.43;;;;;;;;;;4969806;28;100358;-78
2023/01/11 12:30:35;;;;;;;24.52;4.13;;;;;;;;;;4975447;28;100602;-77
2023/01/11 12:33:15;;;;;;;20.73;3.88;;;;;;;;;;4982561;28;99890;-79
2023/01/11 12:35:50;;;;;;;17.60;3.45;;;;;;;;;;4974705;28;98883;-78
2023/01/11 12:38:25;;;;;;;16.40;3.17;;;;;;;;;;4975365;28;100062;-77
2023/01/11 12:41:00;;;;;;;22.75;4.07;;;;;;;;;;4984580;28;100428;-75
2023/01/11 12:43:37;;;;;;;19.70;3.65;;;;;;;;;;4995904;28;100622;-76
2023/01/11 12:46:21;;;;;;;28.52;5.50;;;;;;;;;;4975056;28;100251;-74
2023/01/11 12:49:07;;;;;;;16.55;4.03;;;;;;;;;;4979097;28;100353;-74
2023/01/11 12:51:33;;;;;;;20.35;3.90;;;;;;;;;;4976074;28;100882;-75
2023/01/11 12:54:05;;;;;;;27.77;4.28;;;;;;;;;;4979466;28;99925;-75
2023/01/11 12:56:41;;;;;;;27.65;4.07;;;;;;;;;;4982571;28;99216;-75
2023/01/11 12:59:16;;;;;;;23.08;3.85;;;;;;;;;;4977204;28;99158;-76
2023/01/11 13:01:57;;;;;;;18.60;3.15;;;;;;;;;;4974613;28;100096;-78
2023/01/11 13:04:42;;;;;;;15.88;3.70;;;;;;;;;;4973844;28;99994;-76
2023/01/11 13:07:18;;;;;;;25.25;3.67;;;;;;;;;;4977359;28;100925;-76
2023/01/11 13:10:03;;;;;;;30.92;4.32;;;;;;;;;;4986104;28;99901;-76
2023/01/11 13:12:36;;;;;;;15.32;3.42;;;;;;;;;;4975580;28;99498;-76
2023/01/11 13:15:02;;;;;;;;;;;;;;;;;;4980494;28;100117;-75
2023/01/11 13:17:41;;;;;;;24.52;3.53;;;;;;;;;;4982518;28;130860;-75
2023/01/11 13:20:19;;;;;;;16.98;3.05;;;;;;;;;;4971311;28;99852;-75
2023/01/11 13:22:47;;;;;;;24.42;3.85;;;;;;;;;;4976529;28;99179;-75
2023/01/11 13:25:16;;;;;;;14.85;3.25;;;;;;;;;;4975183;28;100350;-76
2023/01/11 13:27:43;;;;;;;23.17;4.35;;;;;;;;;;4972871;28;100252;-74
2023/01/11 13:30:11;;;;;;;26.17;4.07;;;;;;;;;;4979377;28;100139;-74
2023/01/11 13:32:39;;;;;;;18.23;3.83;;;;;;;;;;4983072;28;100054;-74
2023/01/11 13:35:12;;;;;;;11.13;3.15;;;;;;;;;;4981415;28;100322;-74
2023/01/11 13:37:43;;;;;;;24.83;4.07;;;;;;;;;;4980429;28;99979;-75
2023/01/11 13:40:17;;;;;;;20.33;3.75;;;;;;;;;;4976981;28;100472;-76
2023/01/11 13:42:47;;;;;;;21.92;3.65;;;;;;;;;;4977520;28;100436;-75
2023/01/11 13:45:20;;;;;;;24.02;3.85;;;;;;;;;;4976980;28;98888;-75
2023/01/11 13:47:49;;;;;;;16.15;3.42;;;;;;;;;;4982207;28;100287;-72
2023/01/11 13:50:21;;;;;;;17.98;3.08;;;;;;;;;;4978790;28;100213;-73
2023/01/11 13:52:53;;;;;;;12.75;3.08;;;;;;;;;;4980124;28;99174;-72
2023/01/11 13:55:24;;;;;;;21.92;3.60;;;;;;;;;;4979178;28;100022;-73
2023/01/11 13:57:55;;;;;;;24.45;5.22;;;;;;;;;;4979993;28;100017;-73
2023/01/11 14:00:25;;;;;;;20.23;4.30;;;;;;;;;;4975614;28;99688;-72
2023/01/11 14:02:56;;;;;;;21.27;4.82;;;;;;;;;;4971942;28;99621;-73
2023/01/11 14:05:22;;;;;;;17.60;3.75;;;;;;;;;;4978528;28;100116;-73
2023/01/11 14:07:49;;;;;;;16.08;3.58;;;;;;;;;;4983216;28;99483;-74
2023/01/11 14:10:18;;;;;;;18.85;3.67;;;;;;;;;;4977090;28;100196;-74
2023/01/11 14:12:48;;;;;;;14.77;3.15;;;;;;;;;;4980093;28;100025;-73
2023/01/11 14:15:25;;;;;;;17.73;4.88;;;;;;;;;;4980377;28;99921;-73
2023/01/11 14:18:10;;;;;;;21.70;3.42;;;;;;;;;;4984063;28;100281;-72
2023/01/11 14:20:44;;;;;;;16.95;3.55;;;;;;;;;;4978986;28;100045;-72
2023/01/11 14:23:11;;;;;;;17.10;4.93;;;;;;;;;;4973240;28;99352;-73
2023/01/11 14:25:55;;;;;;;21.77;4.07;;;;;;;;;;4981189;28;99808;-73
2023/01/11 14:28:34;;;;;;;20.55;4.05;;;;;;;;;;4985558;28;99754;-75
2023/01/11 14:31:06;;;;;;;23.00;4.05;;;;;;;;;;4980965;28;100064;-73
2023/01/11 14:33:33;;;;;;;;;;;;;;;;;;4995022;28;99946;-73
2023/01/11 14:36:04;;;;;;;21.67;4.82;;;;;;;;;;4988794;28;129891;-73
2023/01/11 14:39:06;;;;;;;29.52;5.32;;;;;;;;;;4987806;28;99045;-72
2023/01/11 14:41:32;;;;;;;24.10;4.45;;;;;;;;;;4961781;28;100264;-73
2023/01/11 14:44:08;;;;;;;23.08;4.15;;;;;;;;;;4974663;28;100040;-73
2023/01/11 14:46:52;;;;;;;29.98;4.30;;;;;;;;;;4984385;28;99207;-73
2023/01/11 14:49:37;;;;;;;24.17;4.53;;;;;;;;;;5004266;28;100895;-73
2023/01/11 14:52:10;;;;;;;28.63;4.10;;;;;;;;;;5001331;28;100314;-73
2023/01/11 14:54:38;;;;;;;25.80;4.85;;;;;;;;;;4987485;28;99341;-73
2023/01/11 14:57:05;;;;;;;26.85;5.75;;;;;;;;;;4987757;28;100281;-73
2023/01/11 14:59:33;;;;;;;20.33;4.15;;;;;;;;;;4988170;28;99518;-73
2023/01/11 15:02:02;;;;;;;23.75;4.88;;;;;;;;;;4990593;28;99058;-73
2023/01/11 15:04:47;;;;;;;22.30;4.28;;;;;;;;;;4986480;28;100274;-73
2023/01/11 15:07:32;;;;;;;22.63;4.25;;;;;;;;;;4994129;28;98924;-73
2023/01/11 15:09:59;;;;;;;26.15;4.18;;;;;;;;;;4981733;28;100205;-73
2023/01/11 15:12:33;;;;;;;24.88;4.15;;;;;;;;;;4994247;28;99157;-73
2023/01/11 15:15:01;;;;;;;27.05;4.45;;;;;;;;;;4990051;28;99630;-74
2023/01/11 15:20:15;;;;;;;20.80;3.80;;;;;;;;;;4973147;28;99915;-72